sensor_id;sensor_type;location;lat;lon;timestamp;temperature;humidity
19580;DHT22;9936;51.040;13.918;2023-01-29T00:00:30;-1.30;99.90
19580;DHT22;9936;51.040;13.918;2023-01-29T00:04:16;-1.40;99.90
19580;DHT22;9936;51.040;13.918;2023-01-29T00:08:02;-1.40;99.90
19580;DHT22;9936;51.040;13.918;2023-01-29T00:11:48;-1.40;99.90
19580;DHT22;9936;51.040;13.918;2023-01-29T00:15:33;-1.30;99.90
19580;DHT22;9936;51.040;13.918;2023-01-29T00:19:19;-1.40;99.90
19580;DHT22;9936;51.040;13.918;2023-01-29T00:23:05;-1.40;99.90
19580;DHT22;9936;51.040;13.918;2023-01-29T00:26:50;-1.50;99.90
19580;DHT22;9936;51.040;13.918;2023-01-29T00:30:37;-1.50;99.90
19580;DHT22;9936;51.040;13.918;2023-01-29T00:34:22;-1.50;99.90
19580;DHT22;9936;51.040;13.918;2023-01-29T00:38:08;-1.50;99.90
19580;DHT22;9936;51.040;13.918;2023-01-29T00:42:05;-1.40;99.90
19580;DHT22;9936;51.040;13.918;2023-01-29T00:46:10;-1.50;99.90
19580;DHT22;9936;51.040;13.918;2023-01-29T00:49:56;-1.50;99.90
19580;DHT22;9936;51.040;13.918;2023-01-29T00:53:48;-1.50;99.90
19580;DHT22;9936;51.040;13.918;2023-01-29T00:57:34;-1.50;99.90
19580;DHT22;9936;51.040;13.918;2023-01-29T01:01:22;-1.50;99.90
19580;DHT22;9936;51.040;13.918;2023-01-29T01:05:26;-1.50;99.90
19580;DHT22;9936;51.040;13.918;2023-01-29T01:09:12;-1.50;99.90
19580;DHT22;9936;51.040;13.918;2023-01-29T01:13:16;-1.40;99.90
19580;DHT22;9936;51.040;13.918;2023-01-29T01:17:02;-1.40;99.90
19580;DHT22;9936;51.040;13.918;2023-01-29T01:20:47;-1.40;99.90
19580;DHT22;9936;51.040;13.918;2023-01-29T01:24:36;-1.60;99.90
19580;DHT22;9936;51.040;13.918;2023-01-29T01:28:22;-1.50;99.90
19580;DHT22;9936;51.040;13.918;2023-01-29T01:32:08;-1.50;99.90
19580;DHT22;9936;51.040;13.918;2023-01-29T01:35:54;-1.40;99.90
19580;DHT22;9936;51.040;13.918;2023-01-29T01:39:39;-1.40;99.90
19580;DHT22;9936;51.040;13.918;2023-01-29T01:43:25;-1.50;99.90
19580;DHT22;9936;51.040;13.918;2023-01-29T01:47:11;-1.50;99.90
19580;DHT22;9936;51.040;13.918;2023-01-29T01:51:03;-1.50;99.90
19580;DHT22;9936;51.040;13.918;2023-01-29T01:54:50;-1.50;99.90
19580;DHT22;9936;51.040;13.918;2023-01-29T01:58:42;-1.50;99.90
19580;DHT22;9936;51.040;13.918;2023-01-29T02:02:29;-1.60;99.90
19580;DHT22;9936;51.040;13.918;2023-01-29T02:06:34;-1.60;99.90
19580;DHT22;9936;51.040;13.918;2023-01-29T02:10:43;-1.50;99.90
19580;DHT22;9936;51.040;13.918;2023-01-29T02:14:29;-1.50;99.90
19580;DHT22;9936;51.040;13.918;2023-01-29T02:18:18;-1.50;99.90
19580;DHT22;9936;51.040;13.918;2023-01-29T02:22:06;-1.50;99.90
19580;DHT22;9936;51.040;13.918;2023-01-29T02:26:18;-1.60;99.90
19580;DHT22;9936;51.040;13.918;2023-01-29T02:34:07;-1.50;99.90
19580;DHT22;9936;51.040;13.918;2023-01-29T02:42:17;-1.60;99.90
19580;DHT22;9936;51.040;13.918;2023-01-29T02:46:28;-1.60;99.90
19580;DHT22;9936;51.040;13.918;2023-01-29T02:50:22;-1.70;99.90
19580;DHT22;9936;51.040;13.918;2023-01-29T02:54:19;-1.70;99.90
19580;DHT22;9936;51.040;13.918;2023-01-29T03:03:01;-1.60;99.90
19580;DHT22;9936;51.040;13.918;2023-01-29T05:45:00;-2.70;99.90
19580;DHT22;9936;51.040;13.918;2023-01-29T05:48:45;-2.70;99.90
19580;DHT22;9936;51.040;13.918;2023-01-29T05:52:31;-2.70;99.90
19580;DHT22;9936;51.040;13.918;2023-01-29T05:56:16;-2.70;99.90
19580;DHT22;9936;51.040;13.918;2023-01-29T07:18:48;-2.60;99.90
19580;DHT22;9936;51.040;13.918;2023-01-29T07:22:33;-2.50;99.90
19580;DHT22;9936;51.040;13.918;2023-01-29T07:26:19;-2.50;99.90
19580;DHT22;9936;51.040;13.918;2023-01-29T07:30:05;-2.50;99.90
19580;DHT22;9936;51.040;13.918;2023-01-29T07:45:39;-2.50;99.90
19580;DHT22;9936;51.040;13.918;2023-01-29T07:49:24;-2.50;99.90
19580;DHT22;9936;51.040;13.918;2023-01-29T07:53:13;-2.50;99.90
19580;DHT22;9936;51.040;13.918;2023-01-29T07:56:59;-2.60;99.90
19580;DHT22;9936;51.040;13.918;2023-01-29T08:00:45;-2.60;99.90
19580;DHT22;9936;51.040;13.918;2023-01-29T08:04:30;-2.60;99.90
19580;DHT22;9936;51.040;13.918;2023-01-29T08:08:16;-2.60;99.90
19580;DHT22;9936;51.040;13.918;2023-01-29T08:12:02;-2.70;99.90
19580;DHT22;9936;51.040;13.918;2023-01-29T08:15:47;-2.70;99.90
19580;DHT22;9936;51.040;13.918;2023-01-29T08:19:33;-2.60;99.90
19580;DHT22;9936;51.040;13.918;2023-01-29T08:23:19;-2.60;99.90
19580;DHT22;9936;51.040;13.918;2023-01-29T08:27:04;-2.50;99.90
19580;DHT22;9936;51.040;13.918;2023-01-29T08:30:50;-2.40;99.90
19580;DHT22;9936;51.040;13.918;2023-01-29T08:34:36;-2.30;99.90
19580;DHT22;9936;51.040;13.918;2023-01-29T08:38:21;-2.30;99.90
19580;DHT22;9936;51.040;13.918;2023-01-29T08:42:07;-2.20;99.90
19580;DHT22;9936;51.040;13.918;2023-01-29T08:45:53;-2.20;99.90
19580;DHT22;9936;51.040;13.918;2023-01-29T08:49:38;-2.20;99.90
19580;DHT22;9936;51.040;13.918;2023-01-29T08:53:25;-2.20;99.90
19580;DHT22;9936;51.040;13.918;2023-01-29T08:57:11;-2.20;99.90
19580;DHT22;9936;51.040;13.918;2023-01-29T09:01:05;-2.20;99.90
19580;DHT22;9936;51.040;13.918;2023-01-29T09:04:51;-2.10;99.90
19580;DHT22;9936;51.040;13.918;2023-01-29T09:08:37;-2.10;99.90
19580;DHT22;9936;51.040;13.918;2023-01-29T09:12:23;-2.20;99.90
19580;DHT22;9936;51.040;13.918;2023-01-29T09:16:09;-2.10;99.90
19580;DHT22;9936;51.040;13.918;2023-01-29T09:19:55;-2.00;99.90
19580;DHT22;9936;51.040;13.918;2023-01-29T09:23:40;-2.10;99.90
19580;DHT22;9936;51.040;13.918;2023-01-29T09:27:26;-2.00;99.90
19580;DHT22;9936;51.040;13.918;2023-01-29T09:31:12;-2.00;99.90
19580;DHT22;9936;51.040;13.918;2023-01-29T09:34:58;-2.00;99.90
19580;DHT22;9936;51.040;13.918;2023-01-29T09:38:43;-1.90;99.90
19580;DHT22;9936;51.040;13.918;2023-01-29T09:42:38;-1.80;99.90
19580;DHT22;9936;51.040;13.918;2023-01-29T09:46:42;-1.80;99.90
19580;DHT22;9936;51.040;13.918;2023-01-29T09:50:34;-1.70;99.90
19580;DHT22;9936;51.040;13.918;2023-01-29T09:54:24;-1.70;99.90
19580;DHT22;9936;51.040;13.918;2023-01-29T09:58:18;-1.60;99.90
19580;DHT22;9936;51.040;13.918;2023-01-29T10:02:48;-1.60;99.90
19580;DHT22;9936;51.040;13.918;2023-01-29T10:10:50;-1.50;99.90
19580;DHT22;9936;51.040;13.918;2023-01-29T10:19:41;-1.50;99.90
19580;DHT22;9936;51.040;13.918;2023-01-29T10:23:31;-1.50;99.90
19580;DHT22;9936;51.040;13.918;2023-01-29T10:27:18;-1.50;99.90
19580;DHT22;9936;51.040;13.918;2023-01-29T10:31:11;-1.50;99.90
19580;DHT22;9936;51.040;13.918;2023-01-29T10:35:22;-1.40;99.90
19580;DHT22;9936;51.040;13.918;2023-01-29T10:39:20;-1.40;99.90
19580;DHT22;9936;51.040;13.918;2023-01-29T10:43:15;-1.40;99.90
19580;DHT22;9936;51.040;13.918;2023-01-29T10:51:37;-1.30;99.90
19580;DHT22;9936;51.040;13.918;2023-01-29T10:55:58;-1.30;99.90
19580;DHT22;9936;51.040;13.918;2023-01-29T11:00:09;-1.30;99.90
19580;DHT22;9936;51.040;13.918;2023-01-29T11:04:03;-1.20;99.90
19580;DHT22;9936;51.040;13.918;2023-01-29T11:07:56;-1.20;99.90
19580;DHT22;9936;51.040;13.918;2023-01-29T11:15:51;-1.10;99.90
19580;DHT22;9936;51.040;13.918;2023-01-29T11:19:40;-1.10;99.90
19580;DHT22;9936;51.040;13.918;2023-01-29T11:23:31;-1.00;99.90
19580;DHT22;9936;51.040;13.918;2023-01-29T11:27:25;-1.00;99.90
19580;DHT22;9936;51.040;13.918;2023-01-29T11:39:14;-1.00;99.90
19580;DHT22;9936;51.040;13.918;2023-01-29T11:43:35;-0.90;99.90
19580;DHT22;9936;51.040;13.918;2023-01-29T11:47:25;-0.90;99.90
19580;DHT22;9936;51.040;13.918;2023-01-29T11:51:25;-0.80;99.90
19580;DHT22;9936;51.040;13.918;2023-01-29T11:55:18;-0.80;99.90
19580;DHT22;9936;51.040;13.918;2023-01-29T11:59:05;-0.80;99.90
19580;DHT22;9936;51.040;13.918;2023-01-29T12:03:45;-0.80;99.90
19580;DHT22;9936;51.040;13.918;2023-01-29T12:07:11;-0.80;99.90
19580;DHT22;9936;51.040;13.918;2023-01-29T12:15:25;-0.70;99.90
19580;DHT22;9936;51.040;13.918;2023-01-29T12:19:33;-0.70;99.90
19580;DHT22;9936;51.040;13.918;2023-01-29T12:31:39;-0.70;99.90
19580;DHT22;9936;51.040;13.918;2023-01-29T12:35:37;-0.70;99.90
19580;DHT22;9936;51.040;13.918;2023-01-29T12:39:26;-0.60;99.90
19580;DHT22;9936;51.040;13.918;2023-01-29T12:43:17;-0.60;99.90
19580;DHT22;9936;51.040;13.918;2023-01-29T12:47:06;-0.60;99.90
19580;DHT22;9936;51.040;13.918;2023-01-29T12:51:12;-0.60;99.90
19580;DHT22;9936;51.040;13.918;2023-01-29T12:58:55;-0.50;99.90
19580;DHT22;9936;51.040;13.918;2023-01-29T13:07:19;-0.40;99.90
19580;DHT22;9936;51.040;13.918;2023-01-29T13:11:14;-0.40;99.90
19580;DHT22;9936;51.040;13.918;2023-01-29T13:15:11;-0.40;99.90
19580;DHT22;9936;51.040;13.918;2023-01-29T13:19:26;-0.40;99.90
19580;DHT22;9936;51.040;13.918;2023-01-29T13:23:18;-0.30;99.90
19580;DHT22;9936;51.040;13.918;2023-01-29T13:27:05;-0.40;99.90
19580;DHT22;9936;51.040;13.918;2023-01-29T13:35:12;-0.20;99.90
19580;DHT22;9936;51.040;13.918;2023-01-29T13:39:05;-0.20;99.90
19580;DHT22;9936;51.040;13.918;2023-01-29T13:46:55;-0.20;99.90
19580;DHT22;9936;51.040;13.918;2023-01-29T13:50:44;-0.20;99.90
19580;DHT22;9936;51.040;13.918;2023-01-29T13:54:31;-0.20;99.90
19580;DHT22;9936;51.040;13.918;2023-01-29T14:02:29;-0.10;99.90
19580;DHT22;9936;51.040;13.918;2023-01-29T14:06:39;-0.20;99.90
19580;DHT22;9936;51.040;13.918;2023-01-29T14:10:31;-0.10;99.90
19580;DHT22;9936;51.040;13.918;2023-01-29T14:19:01;-0.10;99.90
19580;DHT22;9936;51.040;13.918;2023-01-29T14:22:55;-0.10;99.90
19580;DHT22;9936;51.040;13.918;2023-01-29T14:26:46;-0.10;99.90
19580;DHT22;9936;51.040;13.918;2023-01-29T14:30:33;0.00;99.90
19580;DHT22;9936;51.040;13.918;2023-01-29T14:34:21;-0.10;99.90
19580;DHT22;9936;51.040;13.918;2023-01-29T14:38:13;-0.10;99.90
19580;DHT22;9936;51.040;13.918;2023-01-29T14:42:02;0.00;99.90
19580;DHT22;9936;51.040;13.918;2023-01-29T14:45:49;-0.10;99.90
19580;DHT22;9936;51.040;13.918;2023-01-29T14:49:50;0.00;99.90
19580;DHT22;9936;51.040;13.918;2023-01-29T14:57:28;0.00;99.90
19580;DHT22;9936;51.040;13.918;2023-01-29T15:01:20;0.00;99.90
19580;DHT22;9936;51.040;13.918;2023-01-29T15:05:10;0.00;99.90
19580;DHT22;9936;51.040;13.918;2023-01-29T15:09:16;0.00;99.90
19580;DHT22;9936;51.040;13.918;2023-01-29T15:17:20;-0.10;99.90
19580;DHT22;9936;51.040;13.918;2023-01-29T15:21:16;-0.10;99.90
19580;DHT22;9936;51.040;13.918;2023-01-29T15:25:12;0.00;99.90
19580;DHT22;9936;51.040;13.918;2023-01-29T15:28:59;0.00;99.90
19580;DHT22;9936;51.040;13.918;2023-01-29T15:32:46;0.00;99.90
19580;DHT22;9936;51.040;13.918;2023-01-29T15:36:33;0.10;99.90
19580;DHT22;9936;51.040;13.918;2023-01-29T15:40:21;0.00;99.90
19580;DHT22;9936;51.040;13.918;2023-01-29T15:44:13;0.00;99.90
19580;DHT22;9936;51.040;13.918;2023-01-29T15:48:10;-0.10;99.90
19580;DHT22;9936;51.040;13.918;2023-01-29T15:51:59;0.00;99.90
19580;DHT22;9936;51.040;13.918;2023-01-29T15:55:47;-0.10;99.90
19580;DHT22;9936;51.040;13.918;2023-01-29T15:59:41;-0.10;99.90
19580;DHT22;9936;51.040;13.918;2023-01-29T16:03:31;-0.10;99.90
19580;DHT22;9936;51.040;13.918;2023-01-29T16:07:17;-0.10;99.90
19580;DHT22;9936;51.040;13.918;2023-01-29T16:11:05;-0.10;99.90
19580;DHT22;9936;51.040;13.918;2023-01-29T16:14:51;-0.20;99.90
19580;DHT22;9936;51.040;13.918;2023-01-29T16:18:38;0.00;99.90
19580;DHT22;9936;51.040;13.918;2023-01-29T16:22:27;-0.10;99.90
19580;DHT22;9936;51.040;13.918;2023-01-29T16:26:34;-0.10;99.90
19580;DHT22;9936;51.040;13.918;2023-01-29T16:30:24;-0.20;99.90
19580;DHT22;9936;51.040;13.918;2023-01-29T16:34:26;-0.20;99.90
19580;DHT22;9936;51.040;13.918;2023-01-29T16:38:27;-0.20;99.90
19580;DHT22;9936;51.040;13.918;2023-01-29T16:46:30;-0.20;99.90
19580;DHT22;9936;51.040;13.918;2023-01-29T16:50:25;-0.10;99.90
19580;DHT22;9936;51.040;13.918;2023-01-29T16:54:20;-0.20;99.90
19580;DHT22;9936;51.040;13.918;2023-01-29T16:58:20;-0.20;99.90
19580;DHT22;9936;51.040;13.918;2023-01-29T17:02:24;-0.20;99.90
19580;DHT22;9936;51.040;13.918;2023-01-29T17:06:12;0.00;99.90
19580;DHT22;9936;51.040;13.918;2023-01-29T17:10:04;0.30;99.90
19580;DHT22;9936;51.040;13.918;2023-01-29T17:13:54;0.40;99.90
19580;DHT22;9936;51.040;13.918;2023-01-29T17:17:41;0.50;99.90
19580;DHT22;9936;51.040;13.918;2023-01-29T17:21:30;0.70;99.90
19580;DHT22;9936;51.040;13.918;2023-01-29T17:25:16;0.60;99.90
19580;DHT22;9936;51.040;13.918;2023-01-29T17:29:02;0.70;99.90
19580;DHT22;9936;51.040;13.918;2023-01-29T17:32:48;0.70;99.90
19580;DHT22;9936;51.040;13.918;2023-01-29T17:36:34;0.80;99.90
19580;DHT22;9936;51.040;13.918;2023-01-29T17:44:05;0.80;99.90
19580;DHT22;9936;51.040;13.918;2023-01-29T17:47:51;0.80;99.90
19580;DHT22;9936;51.040;13.918;2023-01-29T17:51:37;0.70;99.90
19580;DHT22;9936;51.040;13.918;2023-01-29T17:55:24;0.80;99.90
19580;DHT22;9936;51.040;13.918;2023-01-29T17:59:18;0.80;99.90
19580;DHT22;9936;51.040;13.918;2023-01-29T18:03:04;0.90;99.90
19580;DHT22;9936;51.040;13.918;2023-01-29T18:06:50;0.90;99.90
19580;DHT22;9936;51.040;13.918;2023-01-29T18:10:37;0.80;99.90
19580;DHT22;9936;51.040;13.918;2023-01-29T18:14:22;0.70;99.90
19580;DHT22;9936;51.040;13.918;2023-01-29T18:18:13;0.70;99.90
19580;DHT22;9936;51.040;13.918;2023-01-29T18:21:58;0.70;99.90
19580;DHT22;9936;51.040;13.918;2023-01-29T18:25:44;0.70;99.90
19580;DHT22;9936;51.040;13.918;2023-01-29T18:29:30;0.50;99.90
19580;DHT22;9936;51.040;13.918;2023-01-29T18:33:16;0.50;99.90
19580;DHT22;9936;51.040;13.918;2023-01-29T18:37:02;0.40;99.90
19580;DHT22;9936;51.040;13.918;2023-01-29T18:40:48;0.40;99.90
19580;DHT22;9936;51.040;13.918;2023-01-29T18:44:34;0.30;99.90
19580;DHT22;9936;51.040;13.918;2023-01-29T18:48:20;0.30;99.90
19580;DHT22;9936;51.040;13.918;2023-01-29T18:52:06;0.20;99.90
19580;DHT22;9936;51.040;13.918;2023-01-29T18:56:03;0.20;99.90
19580;DHT22;9936;51.040;13.918;2023-01-29T18:59:49;0.10;99.90
19580;DHT22;9936;51.040;13.918;2023-01-29T19:03:40;0.00;99.90
19580;DHT22;9936;51.040;13.918;2023-01-29T19:07:26;0.00;99.90
19580;DHT22;9936;51.040;13.918;2023-01-29T19:11:12;0.00;99.90
19580;DHT22;9936;51.040;13.918;2023-01-29T19:15:00;0.10;99.90
19580;DHT22;9936;51.040;13.918;2023-01-29T19:18:46;0.10;99.90
19580;DHT22;9936;51.040;13.918;2023-01-29T19:22:59;0.00;99.90
19580;DHT22;9936;51.040;13.918;2023-01-29T19:26:45;0.00;99.90
19580;DHT22;9936;51.040;13.918;2023-01-29T19:30:31;0.00;99.90
19580;DHT22;9936;51.040;13.918;2023-01-29T19:34:16;0.00;99.90
19580;DHT22;9936;51.040;13.918;2023-01-29T19:38:03;0.00;99.90
19580;DHT22;9936;51.040;13.918;2023-01-29T19:41:50;-0.10;99.90
19580;DHT22;9936;51.040;13.918;2023-01-29T23:52:41;-1.30;99.90
19580;DHT22;9936;51.040;13.918;2023-01-29T23:56:27;-1.30;99.90
